createdAt,value
2016-12-26T00:00:42.965Z,8.05
2016-12-26T00:01:52.457Z,8.06
2016-12-26T00:03:01.935Z,8.1
2016-12-26T00:04:11.449Z,8.05
2016-12-26T00:05:20.364Z,8.13
2016-12-26T00:06:30.170Z,8.09
2016-12-26T00:07:39.367Z,8.1
2016-12-26T00:08:49.183Z,8.06
2016-12-26T00:09:58.543Z,8.15
2016-12-26T00:11:08.030Z,8.09
2016-12-26T00:12:17.561Z,8.12
2016-12-26T00:13:27.055Z,8.13
2016-12-26T00:14:36.870Z,8.13
2016-12-26T00:15:46.359Z,8.15
2016-12-26T00:16:56.141Z,8.15
2016-12-26T00:18:05.335Z,8.17
2016-12-26T00:19:14.809Z,8.07
2016-12-26T00:20:24.657Z,8.21
2016-12-26T00:21:34.473Z,8.16
2016-12-26T00:22:44.278Z,8.2
2016-12-26T00:23:54.055Z,8.2
2016-12-26T00:25:03.303Z,8.21
2016-12-26T00:26:12.795Z,8.17
2016-12-26T00:27:22.766Z,8.23
2016-12-26T00:28:32.575Z,8.17
2016-12-26T00:29:42.084Z,8.21
2016-12-26T00:30:51.905Z,8.16
2016-12-26T00:32:01.416Z,8.23
2016-12-26T00:33:10.891Z,8.24
2016-12-26T00:34:20.705Z,8.24
2016-12-26T00:35:30.497Z,8.21
2016-12-26T00:36:39.989Z,8.24
2016-12-26T00:37:49.489Z,8.17
2016-12-26T00:38:59.284Z,8.21
2016-12-26T00:40:09.060Z,8.2
2016-12-26T00:41:18.638Z,8.23
2016-12-26T00:42:28.171Z,8.12
2016-12-26T00:43:37.997Z,8.16
2016-12-26T00:44:47.613Z,8.2
2016-12-26T00:45:57.098Z,8.21
2016-12-26T00:47:06.751Z,8.24
2016-12-26T00:48:16.560Z,8.2
2016-12-26T00:49:26.068Z,8.15
2016-12-26T00:50:35.877Z,8.17
2016-12-26T00:51:45.389Z,8.17
2016-12-26T00:52:54.871Z,8.23
2016-12-26T00:54:04.379Z,8.17
2016-12-26T00:55:13.886Z,8.1
2016-12-26T00:56:23.380Z,8.28
2016-12-26T00:57:32.865Z,8.13
2016-12-26T00:58:42.644Z,8.25
2016-12-26T00:59:52.668Z,8.28
2016-12-26T01:01:02.187Z,8.3
2016-12-26T01:02:11.720Z,8.28
2016-12-26T01:03:21.515Z,8.28
2016-12-26T01:04:31.300Z,8.28
2016-12-26T01:05:40.514Z,8.27
2016-12-26T01:06:50.017Z,8.25
2016-12-26T01:07:59.573Z,8.28
2016-12-26T01:09:09.049Z,8.27
2016-12-26T01:10:18.542Z,8.24
2016-12-26T01:11:28.353Z,8.23
2016-12-26T01:12:38.335Z,8.27
2016-12-26T01:13:47.828Z,8.28
2016-12-26T01:14:57.689Z,8.23
2016-12-26T01:16:06.864Z,8.28
2016-12-26T01:17:16.098Z,8.28
2016-12-26T01:18:25.888Z,8.17
2016-12-26T01:19:35.527Z,8.24
2016-12-26T01:20:45.371Z,8.31
2016-12-26T01:21:55.151Z,8.3
2016-12-26T01:23:04.369Z,8.25
2016-12-26T01:24:14.096Z,8.27
2016-12-26T01:25:23.980Z,8.27
2016-12-26T01:26:33.820Z,8.31
2016-12-26T01:27:43.614Z,8.3
2016-12-26T01:28:53.127Z,8.28
2016-12-26T01:30:02.689Z,8.34
2016-12-26T01:31:11.864Z,8.35
2016-12-26T01:32:21.662Z,8.28
2016-12-26T01:33:31.479Z,8.31
2016-12-26T01:34:40.986Z,8.31
2016-12-26T01:35:50.783Z,8.34
2016-12-26T01:37:00.686Z,8.34
2016-12-26T01:38:10.504Z,8.31
2016-12-26T01:39:20.405Z,8.31
2016-12-26T01:40:30.214Z,8.3
2016-12-26T01:41:39.404Z,8.31
2016-12-26T01:42:48.904Z,8.28
2016-12-26T01:43:58.204Z,8.3
2016-12-26T01:45:07.997Z,8.35
2016-12-26T01:46:17.157Z,8.27
2016-12-26T01:47:26.951Z,8.28
2016-12-26T01:48:36.797Z,8.34
2016-12-26T01:49:46.626Z,8.32
2016-12-26T01:50:56.752Z,8.35
2016-12-26T01:52:06.603Z,8.28
2016-12-26T01:53:16.089Z,8.35
2016-12-26T01:54:25.902Z,8.34
2016-12-26T01:55:35.721Z,8.28
2016-12-26T01:56:45.534Z,8.34
2016-12-26T01:57:55.014Z,8.28
2016-12-26T01:59:04.209Z,8.34
2016-12-26T02:00:13.728Z,8.37
2016-12-26T02:01:23.259Z,8.32
2016-12-26T02:02:32.787Z,8.34
2016-12-26T02:03:42.065Z,8.35
2016-12-26T02:04:51.588Z,8.32
2016-12-26T02:06:01.413Z,8.39
2016-12-26T02:07:10.914Z,8.31
2016-12-26T02:08:20.428Z,8.39
2016-12-26T02:09:29.909Z,8.43
2016-12-26T02:10:39.711Z,8.45
2016-12-26T02:11:49.520Z,8.31
2016-12-26T02:12:59.396Z,8.39
2016-12-26T02:14:09.192Z,8.31
2016-12-26T02:15:18.669Z,8.4
2016-12-26T02:16:28.505Z,8.37
2016-12-26T02:17:38.353Z,8.45
2016-12-26T02:18:47.828Z,8.32
2016-12-26T02:19:57.384Z,8.42
2016-12-26T02:21:06.541Z,8.4
2016-12-26T02:22:16.032Z,8.42
2016-12-26T02:23:25.980Z,8.42
2016-12-26T02:24:35.162Z,8.42
2016-12-26T02:25:45.025Z,8.39
2016-12-26T02:26:54.870Z,8.35
2016-12-26T02:28:04.659Z,8.45
2016-12-26T02:29:14.434Z,8.35
2016-12-26T02:30:23.957Z,8.35
2016-12-26T02:31:33.424Z,8.4
2016-12-26T02:32:43.225Z,8.32
2016-12-26T02:33:53.014Z,8.39
2016-12-26T02:35:02.801Z,8.42
2016-12-26T02:36:12.087Z,8.35
2016-12-26T02:37:21.623Z,8.34
2016-12-26T02:38:31.130Z,8.39
2016-12-26T02:39:40.602Z,8.37
2016-12-26T02:40:50.185Z,8.43
2016-12-26T02:41:59.358Z,8.45
2016-12-26T02:43:08.843Z,8.37
2016-12-26T02:44:18.660Z,8.45
2016-12-26T02:45:28.451Z,8.4
2016-12-26T02:46:37.929Z,8.45
2016-12-26T02:47:47.080Z,8.49
2016-12-26T02:48:56.861Z,8.43
2016-12-26T02:50:06.659Z,8.45
2016-12-26T02:51:16.464Z,8.5
2016-12-26T02:52:26.259Z,8.49
2016-12-26T02:53:36.161Z,8.48
2016-12-26T02:54:46.003Z,8.42
2016-12-26T02:55:55.284Z,8.43
2016-12-26T02:57:04.786Z,8.4
2016-12-26T02:58:14.610Z,8.39
2016-12-26T02:59:24.397Z,8.45
2016-12-26T03:00:34.211Z,8.37
2016-12-26T03:01:43.752Z,8.43
2016-12-26T03:02:53.220Z,8.46
2016-12-26T03:04:02.994Z,8.37
2016-12-26T03:05:12.777Z,8.45
2016-12-26T03:06:22.585Z,8.45
2016-12-26T03:07:32.384Z,8.49
2016-12-26T03:08:42.167Z,8.45
2016-12-26T03:09:51.637Z,8.48
2016-12-26T03:11:01.428Z,8.49
2016-12-26T03:12:10.985Z,8.48
2016-12-26T03:13:20.457Z,8.48
2016-12-26T03:14:30.048Z,8.5
2016-12-26T03:15:39.526Z,8.52
2016-12-26T03:16:48.722Z,8.42
2016-12-26T03:17:58.579Z,8.45
2016-12-26T03:19:08.090Z,8.48
2016-12-26T03:20:17.888Z,8.42
2016-12-26T03:21:27.673Z,8.48
2016-12-26T03:22:37.163Z,8.52
2016-12-26T03:23:46.961Z,8.53
2016-12-26T03:24:56.898Z,8.52
2016-12-26T03:26:06.747Z,8.53
2016-12-26T03:27:16.224Z,8.48
2016-12-26T03:28:26.097Z,8.48
2016-12-26T03:29:35.575Z,8.5
2016-12-26T03:30:45.111Z,8.48
2016-12-26T03:31:54.926Z,8.57
2016-12-26T03:33:04.403Z,8.53
2016-12-26T03:34:13.899Z,8.5
2016-12-26T03:35:23.116Z,8.49
2016-12-26T03:36:32.888Z,8.52
2016-12-26T03:37:42.693Z,8.48
2016-12-26T03:38:52.490Z,8.5
2016-12-26T03:40:02.281Z,8.52
2016-12-26T03:41:11.819Z,8.53
2016-12-26T03:42:21.637Z,8.53
2016-12-26T03:43:31.431Z,8.53
2016-12-26T03:44:41.236Z,8.61
2016-12-26T03:45:51.165Z,8.5
2016-12-26T03:47:00.978Z,8.55
2016-12-26T03:48:10.761Z,8.55
2016-12-26T03:49:19.647Z,8.55
2016-12-26T03:50:29.116Z,8.63
2016-12-26T03:51:38.416Z,8.49
2016-12-26T03:52:48.215Z,8.49
2016-12-26T03:53:57.750Z,8.53
2016-12-26T03:55:07.575Z,8.6
2016-12-26T03:56:17.074Z,8.48
2016-12-26T03:57:26.239Z,8.45
2016-12-26T03:58:35.403Z,8.53
2016-12-26T03:59:44.906Z,8.6
2016-12-26T04:00:54.703Z,8.53
2016-12-26T04:02:03.898Z,8.57
2016-12-26T04:03:13.422Z,8.58
2016-12-26T04:04:23.190Z,8.52
2016-12-26T04:05:32.830Z,8.5
2016-12-26T04:06:42.308Z,8.52
2016-12-26T04:07:52.093Z,8.5
2016-12-26T04:09:01.587Z,8.5
2016-12-26T04:10:11.176Z,8.52
2016-12-26T04:11:20.983Z,8.55
2016-12-26T04:12:30.497Z,8.46
2016-12-26T04:13:40.288Z,8.55
2016-12-26T04:14:49.522Z,8.52
2016-12-26T04:15:59.018Z,8.5
2016-12-26T04:17:08.803Z,8.49
2016-12-26T04:18:18.298Z,8.45
2016-12-26T04:19:28.081Z,8.45
2016-12-26T04:20:37.612Z,8.46
2016-12-26T04:21:46.474Z,8.49
2016-12-26T04:22:56.257Z,8.45
2016-12-26T04:24:06.123Z,8.45
2016-12-26T04:25:15.930Z,8.37
2016-12-26T04:26:25.749Z,8.34
2016-12-26T04:27:35.379Z,8.39
2016-12-26T04:28:45.166Z,8.42
2016-12-26T04:29:54.954Z,8.31
2016-12-26T04:31:04.769Z,8.4
2016-12-26T04:32:13.949Z,8.34
2016-12-26T04:33:23.188Z,8.35
2016-12-26T04:34:32.958Z,8.37
2016-12-26T04:35:42.473Z,8.32
2016-12-26T04:36:52.256Z,8.34
2016-12-26T04:38:02.062Z,8.3
2016-12-26T04:39:11.222Z,8.3
2016-12-26T04:40:21.016Z,8.39
2016-12-26T04:41:30.801Z,8.39
2016-12-26T04:42:40.452Z,8.34
2016-12-26T04:43:50.256Z,8.32
2016-12-26T04:44:59.804Z,8.32
2016-12-26T04:46:09.610Z,8.37
2016-12-26T04:47:19.424Z,8.37
2016-12-26T04:48:28.275Z,8.35
2016-12-26T04:49:38.096Z,8.35
2016-12-26T04:50:47.901Z,8.37
2016-12-26T04:51:57.399Z,8.37
2016-12-26T04:53:07.197Z,8.39
2016-12-26T04:54:16.976Z,8.37
2016-12-26T04:55:26.776Z,8.31
2016-12-26T04:56:36.282Z,8.34
2016-12-26T04:57:45.320Z,8.39
2016-12-26T04:58:55.163Z,8.31
2016-12-26T05:00:04.947Z,8.37
2016-12-26T05:01:14.721Z,8.37
2016-12-26T05:02:24.528Z,8.4
2016-12-26T05:03:33.691Z,8.46
2016-12-26T05:04:43.478Z,8.35
2016-12-26T05:05:53.282Z,8.35
2016-12-26T05:07:03.065Z,8.42
2016-12-26T05:08:12.547Z,8.39
2016-12-26T05:09:22.220Z,8.42
2016-12-26T05:10:31.765Z,8.39
2016-12-26T05:11:40.624Z,8.39
2016-12-26T05:12:50.095Z,8.4
2016-12-26T05:13:59.949Z,8.39
2016-12-26T05:15:09.907Z,8.43
2016-12-26T05:16:19.379Z,8.35
2016-12-26T05:17:28.579Z,8.39
2016-12-26T05:18:38.355Z,8.37
2016-12-26T05:19:48.146Z,8.31
2016-12-26T05:20:57.966Z,8.28
2016-12-26T05:22:07.795Z,8.3
2016-12-26T05:23:17.294Z,8.27
2016-12-26T05:24:27.186Z,8.3
2016-12-26T05:25:36.970Z,8.27
2016-12-26T05:26:46.445Z,8.27
2016-12-26T05:27:56.006Z,8.3
2016-12-26T05:29:05.792Z,8.28
2016-12-26T05:30:15.272Z,8.24
2016-12-26T05:31:24.125Z,8.15
2016-12-26T05:32:33.625Z,8.15
2016-12-26T05:33:43.421Z,8.2
2016-12-26T05:34:52.946Z,8.21
2016-12-26T05:36:02.728Z,8.17
2016-12-26T05:37:12.517Z,8.15
2016-12-26T05:38:22.292Z,8.15
2016-12-26T05:39:31.798Z,8.15
2016-12-26T05:40:41.296Z,8.16
2016-12-26T05:41:50.792Z,8.12
2016-12-26T05:43:00.669Z,8.15
2016-12-26T05:44:10.455Z,8.12
2016-12-26T05:45:20.014Z,8.12
2016-12-26T05:46:29.490Z,8.13
2016-12-26T05:47:38.711Z,8.09
2016-12-26T05:48:48.690Z,8.03
2016-12-26T05:49:58.163Z,8.07
2016-12-26T05:51:07.649Z,7.99
2016-12-26T05:52:17.503Z,8.07
2016-12-26T05:53:27.307Z,7.99
2016-12-26T05:54:36.812Z,8.09
2016-12-26T05:55:46.615Z,8.02
2016-12-26T05:56:56.487Z,8.05
2016-12-26T05:58:06.363Z,8.02
2016-12-26T05:59:15.640Z,8.05
2016-12-26T06:00:25.136Z,8.09
2016-12-26T06:01:34.621Z,7.95
2016-12-26T06:02:43.789Z,7.98
2016-12-26T06:03:53.268Z,8.1
2016-12-26T06:05:02.741Z,8.1
2016-12-26T06:06:12.576Z,8.06
2016-12-26T06:07:22.395Z,7.98
2016-12-26T06:08:32.207Z,8.12
2016-12-26T06:09:42.054Z,8.15
2016-12-26T06:10:51.832Z,8.1
2016-12-26T06:12:01.676Z,8.09
2016-12-26T06:13:11.167Z,8.16
2016-12-26T06:14:20.719Z,8.13
2016-12-26T06:15:29.915Z,8.17
2016-12-26T06:16:39.788Z,8.17
2016-12-26T06:17:48.977Z,8.17
2016-12-26T06:18:58.523Z,8.21
2016-12-26T06:20:08.375Z,8.17
2016-12-26T06:21:17.878Z,8.2
2016-12-26T06:22:27.690Z,8.2
2016-12-26T06:23:37.169Z,8.16
2016-12-26T06:24:46.671Z,8.15
2016-12-26T06:25:56.468Z,8.27
2016-12-26T06:27:06.481Z,8.24
2016-12-26T06:28:15.945Z,8.3
2016-12-26T06:29:25.729Z,8.27
2016-12-26T06:30:35.515Z,8.3
2016-12-26T06:31:45.341Z,8.27
2016-12-26T06:32:54.811Z,8.31
2016-12-26T06:34:04.281Z,8.31
2016-12-26T06:35:14.056Z,8.28
2016-12-26T06:36:23.865Z,8.28
2016-12-26T06:37:33.359Z,8.34
2016-12-26T06:38:42.565Z,8.31
2016-12-26T06:39:52.146Z,8.31
2016-12-26T06:41:01.983Z,8.34
2016-12-26T06:42:11.481Z,8.43
2016-12-26T06:43:21.272Z,8.42
2016-12-26T06:44:31.220Z,8.39
2016-12-26T06:45:41.007Z,8.35
2016-12-26T06:46:50.541Z,8.42
2016-12-26T06:48:00.356Z,8.4
2016-12-26T06:49:09.942Z,8.34
2016-12-26T06:50:19.759Z,8.45
2016-12-26T06:51:29.560Z,8.39
2016-12-26T06:52:39.378Z,8.45
2016-12-26T06:53:48.243Z,8.37
2016-12-26T06:54:57.799Z,8.45
2016-12-26T06:56:07.314Z,8.37
2016-12-26T06:57:16.837Z,8.39
2016-12-26T06:58:26.327Z,8.45
2016-12-26T06:59:36.113Z,8.39
2016-12-26T07:00:45.892Z,8.46
2016-12-26T07:01:55.729Z,8.55
2016-12-26T07:03:05.214Z,8.45
2016-12-26T07:04:14.397Z,8.48
2016-12-26T07:05:24.226Z,8.48
2016-12-26T07:06:34.073Z,8.48
2016-12-26T07:07:43.882Z,8.48
2016-12-26T07:08:53.372Z,8.52
2016-12-26T07:10:02.859Z,8.52
2016-12-26T07:11:12.671Z,8.5
2016-12-26T07:12:22.468Z,8.52
2016-12-26T07:13:32.333Z,8.55
2016-12-26T07:14:42.117Z,8.5
2016-12-26T07:15:51.063Z,8.52
2016-12-26T07:17:00.844Z,8.52
2016-12-26T07:18:10.621Z,8.49
2016-12-26T07:19:19.491Z,8.55
2016-12-26T07:20:29.003Z,8.53
2016-12-26T07:21:38.805Z,8.48
2016-12-26T07:22:48.280Z,8.49
2016-12-26T07:23:58.198Z,8.58
2016-12-26T07:25:07.718Z,8.52
2016-12-26T07:26:17.308Z,8.58
2016-12-26T07:27:27.126Z,8.6
2016-12-26T07:28:36.309Z,8.55
2016-12-26T07:29:45.654Z,8.55
2016-12-26T07:30:55.458Z,8.49
2016-12-26T07:32:05.397Z,8.53
2016-12-26T07:33:14.872Z,8.58
2016-12-26T07:34:24.742Z,8.53
2016-12-26T07:35:34.562Z,8.57
2016-12-26T07:36:43.722Z,8.49
2016-12-26T07:37:53.535Z,8.49
2016-12-26T07:39:03.509Z,8.49
2016-12-26T07:40:13.324Z,8.66
2016-12-26T07:41:23.109Z,8.63
2016-12-26T07:42:32.894Z,8.63
2016-12-26T07:43:42.774Z,8.61
2016-12-26T07:44:52.613Z,8.48
2016-12-26T07:46:02.409Z,8.49
2016-12-26T07:47:12.192Z,8.53
2016-12-26T07:48:22.002Z,8.53
2016-12-26T07:49:31.776Z,8.61
2016-12-26T07:50:41.238Z,8.55
2016-12-26T07:51:50.776Z,8.5
2016-12-26T07:53:00.254Z,8.5
2016-12-26T07:54:09.731Z,8.58
2016-12-26T07:55:19.294Z,8.48
2016-12-26T07:56:29.410Z,8.61
2016-12-26T07:57:39.207Z,8.49
2016-12-26T07:58:48.737Z,8.64
2016-12-26T07:59:58.541Z,8.5
2016-12-26T08:01:07.755Z,8.61
2016-12-26T08:02:17.551Z,8.6
2016-12-26T08:03:27.036Z,8.61
2016-12-26T08:04:36.527Z,8.63
2016-12-26T08:05:46.347Z,8.6
2016-12-26T08:06:56.270Z,8.63
2016-12-26T08:08:05.482Z,8.66
2016-12-26T08:09:14.971Z,8.55
2016-12-26T08:10:24.764Z,8.58
2016-12-26T08:11:33.939Z,8.66
2016-12-26T08:12:43.435Z,8.66
2016-12-26T08:13:52.903Z,8.63
2016-12-26T08:15:02.402Z,8.74
2016-12-26T08:16:12.189Z,8.7
2016-12-26T08:17:21.687Z,8.77
2016-12-26T08:18:31.506Z,8.74
2016-12-26T08:19:41.044Z,8.7
2016-12-26T08:20:50.904Z,8.71
2016-12-26T08:22:00.694Z,8.7
2016-12-26T08:23:10.478Z,8.8
2016-12-26T08:24:19.653Z,8.8
2016-12-26T08:25:29.458Z,8.71
2016-12-26T08:26:39.328Z,8.68
2016-12-26T08:27:48.819Z,8.75
2016-12-26T08:28:58.366Z,8.74
2016-12-26T08:30:08.137Z,8.8
2016-12-26T08:31:17.618Z,8.71
2016-12-26T08:32:27.471Z,8.79
2016-12-26T08:33:36.967Z,8.71
2016-12-26T08:34:46.716Z,8.71
2016-12-26T08:35:56.506Z,8.75
2016-12-26T08:37:06.292Z,8.66
2016-12-26T08:38:15.935Z,8.67
2016-12-26T08:39:25.438Z,8.7
2016-12-26T08:40:34.934Z,8.66
2016-12-26T08:41:44.191Z,8.7
2016-12-26T08:42:53.679Z,8.61
2016-12-26T08:44:03.475Z,8.63
2016-12-26T08:45:13.176Z,8.57
2016-12-26T08:46:22.696Z,8.66
2016-12-26T08:47:32.204Z,8.66
2016-12-26T08:48:42.052Z,8.75
2016-12-26T08:49:51.863Z,8.68
2016-12-26T08:51:01.704Z,8.7
2016-12-26T08:52:10.900Z,8.68
2016-12-26T08:53:20.398Z,8.67
2016-12-26T08:54:29.902Z,8.7
2016-12-26T08:55:39.710Z,8.75
2016-12-26T08:56:49.185Z,8.74
2016-12-26T08:57:58.666Z,8.8
2016-12-26T08:59:08.459Z,8.74
2016-12-26T09:00:18.729Z,8.71
2016-12-26T09:01:27.762Z,8.77
2016-12-26T09:02:37.398Z,8.75
2016-12-26T09:03:46.886Z,8.82
2016-12-26T09:04:56.390Z,8.86
2016-12-26T09:06:05.554Z,8.83
2016-12-26T09:07:15.502Z,8.74
2016-12-26T09:08:25.297Z,8.89
2016-12-26T09:09:35.095Z,8.75
2016-12-26T09:10:44.907Z,8.8
2016-12-26T09:11:54.713Z,8.89
2016-12-26T09:13:04.195Z,8.79
2016-12-26T09:14:13.684Z,8.9
2016-12-26T09:15:23.160Z,8.95
2016-12-26T09:16:32.963Z,9
2016-12-26T09:17:42.435Z,9.01
2016-12-26T09:18:52.395Z,9
2016-12-26T09:20:02.188Z,9.15
2016-12-26T09:21:11.969Z,9.15
2016-12-26T09:22:21.439Z,9.15
2016-12-26T09:23:31.458Z,9.08
2016-12-26T09:24:41.260Z,9.11
2016-12-26T09:25:51.055Z,9.16
2016-12-26T09:27:00.535Z,9.12
2016-12-26T09:28:10.327Z,9.09
2016-12-26T09:29:20.149Z,9.11
2016-12-26T09:30:29.931Z,9.01
2016-12-26T09:31:39.450Z,9.17
2016-12-26T09:32:48.974Z,9.08
2016-12-26T09:33:58.456Z,9.16
2016-12-26T09:35:08.301Z,9.17
2016-12-26T09:36:17.776Z,9.19
2016-12-26T09:37:27.590Z,9.2
2016-12-26T09:38:37.461Z,9.16
2016-12-26T09:39:47.428Z,9.15
2016-12-26T09:40:56.907Z,9.22
2016-12-26T09:42:06.712Z,9.23
2016-12-26T09:43:16.509Z,9.17
2016-12-26T09:44:25.714Z,9.19
2016-12-26T09:45:35.534Z,9.16
2016-12-26T09:46:45.362Z,9.19
2016-12-26T09:47:55.197Z,9.26
2016-12-26T09:49:04.700Z,9.19
2016-12-26T09:50:14.193Z,9.17
2016-12-26T09:51:24.007Z,9.22
2016-12-26T09:52:33.524Z,9.22
2016-12-26T09:53:42.998Z,9.3
2016-12-26T09:54:52.494Z,9.3
2016-12-26T09:56:02.413Z,9.3
2016-12-26T09:57:11.636Z,9.34
2016-12-26T09:58:21.119Z,9.4
2016-12-26T09:59:30.971Z,9.34
2016-12-26T10:00:40.779Z,9.35
2016-12-26T10:01:50.602Z,9.44
2016-12-26T10:03:00.549Z,9.42
2016-12-26T10:04:10.061Z,9.35
2016-12-26T10:05:19.549Z,9.55
2016-12-26T10:06:29.264Z,9.81
2016-12-26T10:07:39.075Z,10.15
2016-12-26T10:08:48.667Z,10.45
2016-12-26T10:09:58.457Z,10.72
2016-12-26T10:11:08.112Z,10.84
2016-12-26T10:12:17.617Z,10.94
2016-12-26T10:13:27.136Z,10.85
2016-12-26T10:14:36.679Z,10.8
2016-12-26T10:15:46.220Z,10.8
2016-12-26T10:16:56.020Z,10.75
2016-12-26T10:18:05.804Z,10.58
2016-12-26T10:19:15.105Z,10.61
2016-12-26T10:20:24.918Z,10.43
2016-12-26T10:21:34.713Z,10.26
2016-12-26T10:22:44.439Z,10.3
2016-12-26T10:23:54.280Z,10.18
2016-12-26T10:25:03.829Z,10
2016-12-26T10:26:13.615Z,9.99
2016-12-26T10:27:23.236Z,9.92
2016-12-26T10:28:33.067Z,9.78
2016-12-26T10:29:42.607Z,9.73
2016-12-26T10:30:52.398Z,9.75
2016-12-26T10:32:02.203Z,9.71
2016-12-26T10:33:11.697Z,9.73
2016-12-26T10:34:21.481Z,9.62
2016-12-26T10:35:30.948Z,9.5
2016-12-26T10:36:40.458Z,9.53
2016-12-26T10:37:49.970Z,9.52
2016-12-26T10:38:59.596Z,9.52
2016-12-26T10:40:08.460Z,9.41
2016-12-26T10:41:17.977Z,9.4
2016-12-26T10:42:27.801Z,9.37
2016-12-26T10:43:37.582Z,9.41
2016-12-26T10:44:47.400Z,9.34
2016-12-26T10:45:57.201Z,9.42
2016-12-26T10:47:07.033Z,9.47
2016-12-26T10:48:16.500Z,9.3
2016-12-26T10:49:26.411Z,9.4
2016-12-26T10:50:36.011Z,9.33
2016-12-26T10:51:45.519Z,9.25
2016-12-26T10:52:55.305Z,9.27
2016-12-26T10:53:57.851Z,9.26
2016-12-26T10:55:07.670Z,9.16
2016-12-26T10:56:17.448Z,8.97
2016-12-26T10:57:26.629Z,8.75
2016-12-26T10:58:35.802Z,8.6
2016-12-26T10:59:45.597Z,8.45
2016-12-26T11:00:55.122Z,8.31
2016-12-26T11:02:05.005Z,8.16
2016-12-26T11:03:14.981Z,8.06
2016-12-26T11:04:24.841Z,7.91
2016-12-26T11:05:34.685Z,7.8
2016-12-26T11:06:44.648Z,7.85
2016-12-26T11:07:54.449Z,7.82
2016-12-26T11:09:03.679Z,7.74
2016-12-26T11:10:13.466Z,7.69
2016-12-26T11:11:23.337Z,7.67
2016-12-26T11:12:33.154Z,7.51
2016-12-26T11:13:42.664Z,7.41
2016-12-26T11:14:51.858Z,7.41
2016-12-26T11:16:01.356Z,7.36
2016-12-26T11:17:10.934Z,7.22
2016-12-26T11:18:20.441Z,7.24
2016-12-26T11:19:30.411Z,7.24
2016-12-26T11:20:39.782Z,7.26
2016-12-26T11:21:49.262Z,7.2
2016-12-26T11:22:58.823Z,7.17
2016-12-26T11:24:08.634Z,7.17
2016-12-26T11:25:17.811Z,7.17
2016-12-26T11:26:27.321Z,7.26
2016-12-26T11:27:36.824Z,7.22
2016-12-26T11:28:46.030Z,7.26
2016-12-26T11:29:55.198Z,7.34
2016-12-26T11:31:04.989Z,7.4
2016-12-26T11:32:14.821Z,7.37
2016-12-26T11:33:24.823Z,7.29
2016-12-26T11:34:34.620Z,7.33
2016-12-26T11:35:44.451Z,7.34
2016-12-26T11:36:54.260Z,7.29
2016-12-26T11:38:03.745Z,7.26
2016-12-26T11:39:13.721Z,7.2
2016-12-26T11:40:23.514Z,7.31
2016-12-26T11:41:32.726Z,7.22
2016-12-26T11:42:42.570Z,7.22
2016-12-26T11:43:52.441Z,7.14
2016-12-26T11:45:02.238Z,7.21
2016-12-26T11:46:12.020Z,7.24
2016-12-26T11:47:21.825Z,7.2
2016-12-26T11:48:31.318Z,7.22
2016-12-26T11:49:41.155Z,7.21
2016-12-26T11:50:50.954Z,7.21
2016-12-26T11:52:00.455Z,7.14
2016-12-26T11:53:09.680Z,7.2
2016-12-26T11:54:19.152Z,7.14
2016-12-26T11:55:28.998Z,7.2
2016-12-26T11:56:38.830Z,7.17
2016-12-26T11:57:48.365Z,7.06
2016-12-26T11:58:57.864Z,7.13
2016-12-26T12:00:07.243Z,7.17
2016-12-26T12:01:17.111Z,7.14
2016-12-26T12:02:26.923Z,7.11
2016-12-26T12:03:36.690Z,7.15
2016-12-26T12:04:46.481Z,7.06
2016-12-26T12:05:56.100Z,7.08
2016-12-26T12:07:05.925Z,7.14
2016-12-26T12:08:15.788Z,7.17
2016-12-26T12:09:25.265Z,7.13
2016-12-26T12:10:35.260Z,7.15
2016-12-26T12:11:45.069Z,7.03
2016-12-26T12:12:54.875Z,7.13
2016-12-26T12:14:04.392Z,7.06
2016-12-26T12:15:13.969Z,7.11
2016-12-26T12:16:23.784Z,7.14
2016-12-26T12:17:33.301Z,7.13
2016-12-26T12:18:43.249Z,7.1
2016-12-26T12:19:53.053Z,7.2
2016-12-26T12:21:02.837Z,7.13
2016-12-26T12:22:12.337Z,7.17
2016-12-26T12:23:22.393Z,7.18
2016-12-26T12:24:31.872Z,7.11
2016-12-26T12:25:41.370Z,7.08
2016-12-26T12:26:50.849Z,7.17
2016-12-26T12:28:00.335Z,7.18
2016-12-26T12:29:10.192Z,7.21
2016-12-26T12:30:20.045Z,7.1
2016-12-26T12:31:29.578Z,7.2
2016-12-26T12:32:39.616Z,7.13
2016-12-26T12:33:49.125Z,7.11
2016-12-26T12:34:58.992Z,7.1
2016-12-26T12:36:07.981Z,7.08
2016-12-26T12:37:17.707Z,7.13
2016-12-26T12:38:27.367Z,7.14
2016-12-26T12:39:36.852Z,6.99
2016-12-26T12:40:46.643Z,7.03
2016-12-26T12:41:56.465Z,7.1
2016-12-26T12:43:05.946Z,7.13
2016-12-26T12:44:15.431Z,7.11
2016-12-26T12:45:24.929Z,7.18
2016-12-26T12:46:34.409Z,7.03
2016-12-26T12:47:44.229Z,7.14
2016-12-26T12:48:53.798Z,7.08
2016-12-26T12:50:03.347Z,7.14
2016-12-26T12:51:12.839Z,7.17
2016-12-26T12:52:22.346Z,7.17
2016-12-26T12:53:31.518Z,7.15
2016-12-26T12:54:41.391Z,7
2016-12-26T12:55:51.359Z,7.13
2016-12-26T12:57:00.882Z,7.13
2016-12-26T12:58:10.571Z,7.13
2016-12-26T12:59:20.072Z,7.22
2016-12-26T13:00:29.540Z,7.22
2016-12-26T13:01:39.046Z,7.26
2016-12-26T13:02:48.829Z,7.28
2016-12-26T13:03:58.483Z,7.28
2016-12-26T13:05:08.320Z,7.28
2016-12-26T13:06:18.337Z,7.34
2016-12-26T13:07:27.818Z,7.33
2016-12-26T13:08:36.712Z,7.31
2016-12-26T13:09:46.573Z,7.22
2016-12-26T13:10:56.514Z,7.26
2016-12-26T13:12:06.318Z,7.24
2016-12-26T13:13:16.173Z,7.21
2016-12-26T13:14:25.335Z,7.21
2016-12-26T13:15:34.845Z,7.14
2016-12-26T13:16:44.676Z,7.15
2016-12-26T13:17:53.849Z,7.11
2016-12-26T13:19:03.694Z,7.11
2016-12-26T13:20:13.489Z,7.14
2016-12-26T13:21:22.968Z,7.11
2016-12-26T13:22:32.746Z,6.99
2016-12-26T13:23:42.283Z,6.97
2016-12-26T13:24:52.107Z,6.93
2016-12-26T13:26:01.361Z,6.92
2016-12-26T13:27:11.189Z,6.81
2016-12-26T13:28:21.019Z,6.85
2016-12-26T13:29:30.974Z,6.78
2016-12-26T13:30:40.856Z,6.81
2016-12-26T13:31:50.676Z,6.87
2016-12-26T13:32:59.845Z,6.84
2016-12-26T13:34:09.010Z,6.9
2016-12-26T13:35:18.872Z,6.89
2016-12-26T13:36:28.714Z,6.87
2016-12-26T13:37:38.557Z,6.87
2016-12-26T13:38:48.040Z,6.9
2016-12-26T13:40:29.736Z,6.85
2016-12-26T13:41:39.522Z,6.79
2016-12-26T13:42:48.689Z,6.89
2016-12-26T13:43:57.917Z,6.87
2016-12-26T13:45:07.092Z,6.79
2016-12-26T13:46:16.593Z,6.75
2016-12-26T13:47:26.145Z,6.81
2016-12-26T13:48:36.009Z,6.72
2016-12-26T13:49:45.817Z,6.72
2016-12-26T13:50:55.658Z,6.74
2016-12-26T13:52:05.294Z,6.64
2016-12-26T13:53:15.080Z,6.56
2016-12-26T13:54:24.899Z,6.63
2016-12-26T13:55:34.699Z,6.56
2016-12-26T13:56:44.269Z,6.59
2016-12-26T13:57:53.967Z,6.59
2016-12-26T13:59:03.496Z,6.6
2016-12-26T14:00:13.323Z,6.57
2016-12-26T14:01:22.911Z,6.52
2016-12-26T14:02:32.090Z,6.54
2016-12-26T14:03:41.596Z,6.6
2016-12-26T14:04:51.392Z,6.53
2016-12-26T14:06:00.583Z,6.54
2016-12-26T14:07:09.541Z,6.45
2016-12-26T14:08:19.054Z,6.41
2016-12-26T14:09:27.923Z,6.3
2016-12-26T14:10:37.433Z,6.26
2016-12-26T14:11:47.264Z,6.19
2016-12-26T14:12:56.756Z,6.2
2016-12-26T14:14:06.622Z,6.17
2016-12-26T14:15:16.446Z,6.17
2016-12-26T14:16:25.971Z,6.17
2016-12-26T14:17:35.447Z,6.14
2016-12-26T14:18:45.265Z,6.14
2016-12-26T14:19:54.749Z,6.03
2016-12-26T14:21:04.295Z,6.12
2016-12-26T14:22:13.823Z,6.09
2016-12-26T14:23:23.362Z,5.93
2016-12-26T14:24:32.867Z,5.91
2016-12-26T14:25:42.660Z,5.9
2016-12-26T14:26:52.217Z,5.93
2016-12-26T14:28:01.696Z,5.88
2016-12-26T14:29:11.499Z,5.9
2016-12-26T14:30:21.435Z,5.91
2016-12-26T14:31:30.912Z,5.82
2016-12-26T14:32:40.474Z,5.79
2016-12-26T14:33:50.257Z,5.86
2016-12-26T14:34:59.740Z,5.88
2016-12-26T14:36:09.259Z,5.94
2016-12-26T14:37:18.427Z,5.75
2016-12-26T14:38:28.228Z,5.74
2016-12-26T14:39:37.419Z,5.91
2016-12-26T14:40:47.292Z,5.74
2016-12-26T14:41:56.525Z,5.88
2016-12-26T14:43:05.689Z,5.91
2016-12-26T14:44:15.498Z,5.86
2016-12-26T14:45:25.273Z,5.88
2016-12-26T14:46:34.779Z,5.79
2016-12-26T14:47:44.066Z,5.8
2016-12-26T14:48:53.238Z,5.8
2016-12-26T14:50:03.020Z,5.77
2016-12-26T14:51:12.509Z,5.83
2016-12-26T14:52:21.369Z,5.86
2016-12-26T14:53:30.873Z,5.82
2016-12-26T14:54:40.378Z,5.79
2016-12-26T14:55:50.259Z,5.77
2016-12-26T14:57:00.084Z,5.77
2016-12-26T14:58:09.590Z,5.83
2016-12-26T14:59:18.807Z,5.86
2016-12-26T15:00:28.315Z,5.83
2016-12-26T15:01:38.348Z,5.9
2016-12-26T15:02:47.552Z,5.75
2016-12-26T15:03:57.033Z,5.83
2016-12-26T15:05:06.818Z,5.84
2016-12-26T15:06:16.338Z,5.71
2016-12-26T15:07:25.896Z,5.8
2016-12-26T15:08:35.701Z,5.91
2016-12-26T15:09:45.507Z,5.88
2016-12-26T15:10:54.717Z,5.83
2016-12-26T15:12:04.516Z,5.83
2016-12-26T15:13:14.319Z,5.8
2016-12-26T15:14:23.955Z,5.86
2016-12-26T15:15:33.496Z,5.77
2016-12-26T15:16:42.974Z,5.71
2016-12-26T15:17:52.784Z,5.71
2016-12-26T15:19:02.269Z,5.67
2016-12-26T15:20:11.793Z,5.77
2016-12-26T15:21:21.618Z,5.74
2016-12-26T15:22:30.790Z,5.71
2016-12-26T15:23:40.597Z,5.69
2016-12-26T15:24:50.136Z,5.69
2016-12-26T15:25:59.936Z,5.72
2016-12-26T15:27:09.417Z,5.65
2016-12-26T15:28:19.220Z,5.69
2016-12-26T15:29:29.134Z,5.64
2016-12-26T15:30:38.940Z,5.68